sensor_id;sensor_type;location;lat;lon;timestamp;P1;durP1;ratioP1;P2;durP2;ratioP2
13222;SDS011;6676;45.192;5.722;2023-02-25T00:02:22;5.17;;;2.30;;
13222;SDS011;6676;45.192;5.722;2023-02-25T00:05:17;3.83;;;2.72;;
13222;SDS011;6676;45.192;5.722;2023-02-25T00:12:53;3.45;;;1.95;;
13222;SDS011;6676;45.192;5.722;2023-02-25T00:16:00;3.60;;;2.10;;
13222;SDS011;6676;45.192;5.722;2023-02-25T00:40:18;1.50;;;0.90;;
13222;SDS011;6676;45.192;5.722;2023-02-25T00:43:10;2.83;;;1.25;;
13222;SDS011;6676;45.192;5.722;2023-02-25T00:46:01;2.98;;;1.30;;
13222;SDS011;6676;45.192;5.722;2023-02-25T00:48:56;3.15;;;1.20;;
13222;SDS011;6676;45.192;5.722;2023-02-25T00:51:48;2.17;;;1.07;;
13222;SDS011;6676;45.192;5.722;2023-02-25T00:54:41;2.33;;;0.90;;
13222;SDS011;6676;45.192;5.722;2023-02-25T00:57:32;2.87;;;1.10;;
13222;SDS011;6676;45.192;5.722;2023-02-25T01:00:24;2.47;;;0.75;;
13222;SDS011;6676;45.192;5.722;2023-02-25T01:03:15;2.65;;;0.53;;
13222;SDS011;6676;45.192;5.722;2023-02-25T01:06:08;2.12;;;0.85;;
13222;SDS011;6676;45.192;5.722;2023-02-25T01:08:59;1.52;;;0.85;;
13222;SDS011;6676;45.192;5.722;2023-02-25T01:11:52;2.10;;;0.50;;
13222;SDS011;6676;45.192;5.722;2023-02-25T01:14:44;0.50;;;0.50;;
13222;SDS011;6676;45.192;5.722;2023-02-25T01:17:36;3.90;;;0.80;;
13222;SDS011;6676;45.192;5.722;2023-02-25T01:20:28;1.92;;;0.53;;
13222;SDS011;6676;45.192;5.722;2023-02-25T01:23:20;0.78;;;0.47;;
13222;SDS011;6676;45.192;5.722;2023-02-25T01:26:13;4.03;;;1.00;;
13222;SDS011;6676;45.192;5.722;2023-02-25T01:29:06;2.85;;;0.98;;
13222;SDS011;6676;45.192;5.722;2023-02-25T01:31:58;2.65;;;1.00;;
13222;SDS011;6676;45.192;5.722;2023-02-25T01:34:52;2.22;;;0.80;;
13222;SDS011;6676;45.192;5.722;2023-02-25T01:37:44;1.92;;;0.80;;
13222;SDS011;6676;45.192;5.722;2023-02-25T01:40:37;2.17;;;1.00;;
13222;SDS011;6676;45.192;5.722;2023-02-25T01:43:28;1.57;;;0.98;;
13222;SDS011;6676;45.192;5.722;2023-02-25T01:46:20;2.77;;;1.00;;
13222;SDS011;6676;45.192;5.722;2023-02-25T01:49:13;2.27;;;1.10;;
13222;SDS011;6676;45.192;5.722;2023-02-25T01:51:57;2.42;;;0.88;;
13222;SDS011;6676;45.192;5.722;2023-02-25T01:54:50;5.10;;;1.10;;
13222;SDS011;6676;45.192;5.722;2023-02-25T01:57:32;2.12;;;0.75;;
13222;SDS011;6676;45.192;5.722;2023-02-25T02:00:24;2.02;;;0.80;;
13222;SDS011;6676;45.192;5.722;2023-02-25T02:03:16;2.58;;;0.98;;
13222;SDS011;6676;45.192;5.722;2023-02-25T02:06:09;1.47;;;0.82;;
13222;SDS011;6676;45.192;5.722;2023-02-25T02:09:03;3.08;;;0.98;;
13222;SDS011;6676;45.192;5.722;2023-02-25T02:11:57;1.85;;;1.00;;
13222;SDS011;6676;45.192;5.722;2023-02-25T02:14:51;2.40;;;0.95;;
13222;SDS011;6676;45.192;5.722;2023-02-25T02:17:48;2.02;;;0.93;;
13222;SDS011;6676;45.192;5.722;2023-02-25T02:20:45;1.98;;;0.95;;
13222;SDS011;6676;45.192;5.722;2023-02-25T02:27:21;3.50;;;1.10;;
13222;SDS011;6676;45.192;5.722;2023-02-25T02:30:16;2.75;;;1.35;;
13222;SDS011;6676;45.192;5.722;2023-02-25T02:33:28;2.55;;;0.90;;
13222;SDS011;6676;45.192;5.722;2023-02-25T02:36:24;4.33;;;1.22;;
13222;SDS011;6676;45.192;5.722;2023-02-25T02:39:19;1.87;;;0.90;;
13222;SDS011;6676;45.192;5.722;2023-02-25T02:42:03;2.77;;;0.90;;
13222;SDS011;6676;45.192;5.722;2023-02-25T02:45:01;2.15;;;0.90;;
13222;SDS011;6676;45.192;5.722;2023-02-25T02:47:57;2.10;;;0.95;;
13222;SDS011;6676;45.192;5.722;2023-02-25T02:50:51;1.67;;;0.88;;
13222;SDS011;6676;45.192;5.722;2023-02-25T02:53:35;2.47;;;0.78;;
13222;SDS011;6676;45.192;5.722;2023-02-25T02:56:27;2.02;;;1.02;;
13222;SDS011;6676;45.192;5.722;2023-02-25T02:59:22;3.22;;;1.07;;
13222;SDS011;6676;45.192;5.722;2023-02-25T03:02:19;2.95;;;1.00;;
13222;SDS011;6676;45.192;5.722;2023-02-25T03:05:14;3.75;;;1.32;;
13222;SDS011;6676;45.192;5.722;2023-02-25T03:08:09;4.33;;;1.40;;
13222;SDS011;6676;45.192;5.722;2023-02-25T03:11:04;2.72;;;1.37;;
13222;SDS011;6676;45.192;5.722;2023-02-25T03:13:56;4.58;;;1.35;;
13222;SDS011;6676;45.192;5.722;2023-02-25T03:16:50;3.10;;;1.70;;
13222;SDS011;6676;45.192;5.722;2023-02-25T03:22:44;2.75;;;1.50;;
13222;SDS011;6676;45.192;5.722;2023-02-25T03:25:40;3.30;;;1.42;;
13222;SDS011;6676;45.192;5.722;2023-02-25T03:28:29;4.25;;;1.50;;
13222;SDS011;6676;45.192;5.722;2023-02-25T03:31:24;4.65;;;1.50;;
13222;SDS011;6676;45.192;5.722;2023-02-25T03:34:20;2.90;;;1.10;;
13222;SDS011;6676;45.192;5.722;2023-02-25T03:37:16;2.20;;;1.02;;
13222;SDS011;6676;45.192;5.722;2023-02-25T03:40:10;3.10;;;1.10;;
13222;SDS011;6676;45.192;5.722;2023-02-25T03:43:05;3.52;;;0.90;;
13222;SDS011;6676;45.192;5.722;2023-02-25T03:45:59;3.22;;;1.07;;
13222;SDS011;6676;45.192;5.722;2023-02-25T03:48:52;2.87;;;1.10;;
13222;SDS011;6676;45.192;5.722;2023-02-25T03:51:44;2.22;;;0.80;;
13222;SDS011;6676;45.192;5.722;2023-02-25T03:54:38;3.17;;;1.05;;
13222;SDS011;6676;45.192;5.722;2023-02-25T03:57:34;3.05;;;1.20;;
13222;SDS011;6676;45.192;5.722;2023-02-25T04:00:31;3.45;;;0.93;;
13222;SDS011;6676;45.192;5.722;2023-02-25T04:03:28;2.33;;;0.98;;
13222;SDS011;6676;45.192;5.722;2023-02-25T04:06:21;1.57;;;0.75;;
13222;SDS011;6676;45.192;5.722;2023-02-25T04:09:14;3.22;;;0.80;;
13222;SDS011;6676;45.192;5.722;2023-02-25T04:12:06;1.92;;;1.10;;
13222;SDS011;6676;45.192;5.722;2023-02-25T04:14:57;2.35;;;0.80;;
13222;SDS011;6676;45.192;5.722;2023-02-25T04:17:48;2.77;;;1.37;;
13222;SDS011;6676;45.192;5.722;2023-02-25T04:20:40;2.65;;;0.98;;
13222;SDS011;6676;45.192;5.722;2023-02-25T04:23:31;2.98;;;1.00;;
13222;SDS011;6676;45.192;5.722;2023-02-25T04:26:24;2.15;;;1.30;;
13222;SDS011;6676;45.192;5.722;2023-02-25T04:29:16;2.08;;;1.07;;
13222;SDS011;6676;45.192;5.722;2023-02-25T04:32:07;2.08;;;1.05;;
13222;SDS011;6676;45.192;5.722;2023-02-25T04:35:05;3.07;;;2.07;;
13222;SDS011;6676;45.192;5.722;2023-02-25T04:37:59;3.52;;;1.57;;
13222;SDS011;6676;45.192;5.722;2023-02-25T04:40:50;3.33;;;1.95;;
13222;SDS011;6676;45.192;5.722;2023-02-25T04:43:42;4.85;;;2.08;;
13222;SDS011;6676;45.192;5.722;2023-02-25T04:46:34;4.35;;;1.80;;
13222;SDS011;6676;45.192;5.722;2023-02-25T04:49:27;3.55;;;1.60;;
13222;SDS011;6676;45.192;5.722;2023-02-25T04:52:19;4.20;;;1.82;;
13222;SDS011;6676;45.192;5.722;2023-02-25T04:55:10;2.33;;;1.30;;
13222;SDS011;6676;45.192;5.722;2023-02-25T04:58:01;2.98;;;1.00;;
13222;SDS011;6676;45.192;5.722;2023-02-25T05:00:53;2.20;;;1.22;;
13222;SDS011;6676;45.192;5.722;2023-02-25T05:03:45;3.85;;;1.52;;
13222;SDS011;6676;45.192;5.722;2023-02-25T05:06:36;2.12;;;0.90;;
13222;SDS011;6676;45.192;5.722;2023-02-25T05:09:28;3.65;;;0.90;;
13222;SDS011;6676;45.192;5.722;2023-02-25T05:12:19;3.83;;;1.00;;
13222;SDS011;6676;45.192;5.722;2023-02-25T05:15:11;2.05;;;0.95;;
13222;SDS011;6676;45.192;5.722;2023-02-25T05:18:03;3.55;;;1.40;;
13222;SDS011;6676;45.192;5.722;2023-02-25T05:20:55;3.87;;;1.10;;
13222;SDS011;6676;45.192;5.722;2023-02-25T05:23:48;2.25;;;1.20;;
13222;SDS011;6676;45.192;5.722;2023-02-25T05:26:43;4.35;;;1.50;;
13222;SDS011;6676;45.192;5.722;2023-02-25T05:29:35;3.02;;;1.30;;
13222;SDS011;6676;45.192;5.722;2023-02-25T05:32:27;4.35;;;2.00;;
13222;SDS011;6676;45.192;5.722;2023-02-25T05:35:20;2.67;;;1.57;;
13222;SDS011;6676;45.192;5.722;2023-02-25T05:38:11;1.95;;;1.17;;
13222;SDS011;6676;45.192;5.722;2023-02-25T05:41:07;5.05;;;1.80;;
13222;SDS011;6676;45.192;5.722;2023-02-25T05:43:59;2.50;;;1.65;;
13222;SDS011;6676;45.192;5.722;2023-02-25T05:46:50;3.10;;;1.55;;
13222;SDS011;6676;45.192;5.722;2023-02-25T05:49:42;4.12;;;1.60;;
13222;SDS011;6676;45.192;5.722;2023-02-25T05:52:33;3.05;;;1.50;;
13222;SDS011;6676;45.192;5.722;2023-02-25T05:55:27;3.58;;;1.80;;
13222;SDS011;6676;45.192;5.722;2023-02-25T05:58:19;1.95;;;1.50;;
13222;SDS011;6676;45.192;5.722;2023-02-25T06:01:11;2.05;;;1.52;;
13222;SDS011;6676;45.192;5.722;2023-02-25T06:04:04;3.08;;;1.50;;
13222;SDS011;6676;45.192;5.722;2023-02-25T06:07:05;3.80;;;1.90;;
13222;SDS011;6676;45.192;5.722;2023-02-25T06:09:57;2.87;;;1.60;;
13222;SDS011;6676;45.192;5.722;2023-02-25T06:12:49;2.75;;;1.67;;
13222;SDS011;6676;45.192;5.722;2023-02-25T06:15:41;2.58;;;1.75;;
13222;SDS011;6676;45.192;5.722;2023-02-25T06:18:33;1.35;;;0.93;;
13222;SDS011;6676;45.192;5.722;2023-02-25T06:21:25;2.40;;;1.62;;
13222;SDS011;6676;45.192;5.722;2023-02-25T06:24:16;2.80;;;1.30;;
13222;SDS011;6676;45.192;5.722;2023-02-25T06:27:08;1.62;;;1.32;;
13222;SDS011;6676;45.192;5.722;2023-02-25T06:29:59;1.92;;;1.55;;
13222;SDS011;6676;45.192;5.722;2023-02-25T06:32:51;2.42;;;1.62;;
13222;SDS011;6676;45.192;5.722;2023-02-25T06:35:43;3.90;;;1.82;;
13222;SDS011;6676;45.192;5.722;2023-02-25T06:38:34;1.60;;;1.30;;
13222;SDS011;6676;45.192;5.722;2023-02-25T06:41:28;2.17;;;1.65;;
13222;SDS011;6676;45.192;5.722;2023-02-25T06:44:28;1.55;;;1.35;;
13222;SDS011;6676;45.192;5.722;2023-02-25T06:47:20;3.60;;;1.50;;
13222;SDS011;6676;45.192;5.722;2023-02-25T06:50:18;2.52;;;1.25;;
13222;SDS011;6676;45.192;5.722;2023-02-25T06:53:10;3.10;;;1.22;;
13222;SDS011;6676;45.192;5.722;2023-02-25T06:55:51;2.55;;;1.32;;
13222;SDS011;6676;45.192;5.722;2023-02-25T06:58:43;2.17;;;1.40;;
13222;SDS011;6676;45.192;5.722;2023-02-25T07:01:45;1.80;;;1.22;;
13222;SDS011;6676;45.192;5.722;2023-02-25T07:04:48;1.87;;;1.40;;
13222;SDS011;6676;45.192;5.722;2023-02-25T07:07:44;1.55;;;1.10;;
13222;SDS011;6676;45.192;5.722;2023-02-25T07:10:36;2.08;;;1.00;;
13222;SDS011;6676;45.192;5.722;2023-02-25T07:13:29;1.45;;;1.00;;
13222;SDS011;6676;45.192;5.722;2023-02-25T07:16:21;2.87;;;0.90;;
13222;SDS011;6676;45.192;5.722;2023-02-25T07:19:13;2.15;;;1.10;;
13222;SDS011;6676;45.192;5.722;2023-02-25T07:22:35;1.10;;;1.00;;
13222;SDS011;6676;45.192;5.722;2023-02-25T07:25:34;1.50;;;0.88;;
13222;SDS011;6676;45.192;5.722;2023-02-25T07:28:26;1.62;;;0.80;;
13222;SDS011;6676;45.192;5.722;2023-02-25T07:31:27;1.85;;;1.15;;
13222;SDS011;6676;45.192;5.722;2023-02-25T07:34:20;1.90;;;1.00;;
13222;SDS011;6676;45.192;5.722;2023-02-25T07:37:23;2.45;;;1.00;;
13222;SDS011;6676;45.192;5.722;2023-02-25T07:40:17;1.35;;;0.72;;
13222;SDS011;6676;45.192;5.722;2023-02-25T07:43:09;1.05;;;0.90;;
13222;SDS011;6676;45.192;5.722;2023-02-25T07:46:07;3.12;;;1.20;;
13222;SDS011;6676;45.192;5.722;2023-02-25T07:49:08;0.95;;;0.85;;
13222;SDS011;6676;45.192;5.722;2023-02-25T07:52:00;1.65;;;1.30;;
13222;SDS011;6676;45.192;5.722;2023-02-25T07:54:52;2.08;;;1.10;;
13222;SDS011;6676;45.192;5.722;2023-02-25T07:57:43;1.47;;;1.10;;
13222;SDS011;6676;45.192;5.722;2023-02-25T08:00:35;2.05;;;1.50;;
13222;SDS011;6676;45.192;5.722;2023-02-25T08:03:28;4.47;;;1.22;;
13222;SDS011;6676;45.192;5.722;2023-02-25T08:06:20;3.27;;;1.37;;
13222;SDS011;6676;45.192;5.722;2023-02-25T08:09:12;1.47;;;1.05;;
13222;SDS011;6676;45.192;5.722;2023-02-25T08:12:04;1.40;;;1.30;;
13222;SDS011;6676;45.192;5.722;2023-02-25T08:14:58;2.45;;;1.50;;
13222;SDS011;6676;45.192;5.722;2023-02-25T08:17:50;1.43;;;1.30;;
13222;SDS011;6676;45.192;5.722;2023-02-25T08:20:45;1.50;;;1.40;;
13222;SDS011;6676;45.192;5.722;2023-02-25T08:23:40;1.67;;;1.30;;
13222;SDS011;6676;45.192;5.722;2023-02-25T08:26:31;2.00;;;1.40;;
13222;SDS011;6676;45.192;5.722;2023-02-25T08:29:23;1.50;;;1.30;;
13222;SDS011;6676;45.192;5.722;2023-02-25T08:32:15;2.45;;;1.50;;
13222;SDS011;6676;45.192;5.722;2023-02-25T08:35:07;2.40;;;1.80;;
13222;SDS011;6676;45.192;5.722;2023-02-25T08:37:59;2.80;;;1.92;;
13222;SDS011;6676;45.192;5.722;2023-02-25T08:40:51;1.82;;;1.25;;
13222;SDS011;6676;45.192;5.722;2023-02-25T08:43:42;3.72;;;1.35;;
13222;SDS011;6676;45.192;5.722;2023-02-25T08:46:36;1.55;;;1.10;;
13222;SDS011;6676;45.192;5.722;2023-02-25T08:49:29;4.58;;;1.50;;
13222;SDS011;6676;45.192;5.722;2023-02-25T08:52:21;1.98;;;1.70;;
13222;SDS011;6676;45.192;5.722;2023-02-25T08:55:18;2.75;;;1.30;;
13222;SDS011;6676;45.192;5.722;2023-02-25T08:58:11;3.25;;;1.40;;
13222;SDS011;6676;45.192;5.722;2023-02-25T09:01:05;1.90;;;1.55;;
13222;SDS011;6676;45.192;5.722;2023-02-25T09:04:00;2.20;;;1.52;;
13222;SDS011;6676;45.192;5.722;2023-02-25T09:06:52;2.45;;;1.47;;
13222;SDS011;6676;45.192;5.722;2023-02-25T09:09:45;2.12;;;1.42;;
13222;SDS011;6676;45.192;5.722;2023-02-25T09:12:37;2.08;;;1.30;;
13222;SDS011;6676;45.192;5.722;2023-02-25T09:15:29;2.77;;;1.52;;
13222;SDS011;6676;45.192;5.722;2023-02-25T09:18:23;2.90;;;1.40;;
13222;SDS011;6676;45.192;5.722;2023-02-25T09:21:14;1.70;;;1.40;;
13222;SDS011;6676;45.192;5.722;2023-02-25T09:24:07;2.77;;;1.50;;
13222;SDS011;6676;45.192;5.722;2023-02-25T09:27:00;1.77;;;1.20;;
13222;SDS011;6676;45.192;5.722;2023-02-25T09:29:56;1.52;;;1.10;;
13222;SDS011;6676;45.192;5.722;2023-02-25T09:32:50;1.62;;;1.32;;
13222;SDS011;6676;45.192;5.722;2023-02-25T09:35:41;2.25;;;1.70;;
13222;SDS011;6676;45.192;5.722;2023-02-25T09:38:33;1.82;;;1.40;;
13222;SDS011;6676;45.192;5.722;2023-02-25T09:41:27;2.65;;;1.40;;
13222;SDS011;6676;45.192;5.722;2023-02-25T09:44:23;2.70;;;1.45;;
13222;SDS011;6676;45.192;5.722;2023-02-25T09:47:17;2.05;;;1.30;;
13222;SDS011;6676;45.192;5.722;2023-02-25T09:50:12;2.77;;;1.52;;
13222;SDS011;6676;45.192;5.722;2023-02-25T09:53:09;2.52;;;1.70;;
13222;SDS011;6676;45.192;5.722;2023-02-25T09:56:04;1.55;;;1.30;;
13222;SDS011;6676;45.192;5.722;2023-02-25T09:58:57;3.40;;;1.85;;
13222;SDS011;6676;45.192;5.722;2023-02-25T10:01:49;2.15;;;1.50;;
13222;SDS011;6676;45.192;5.722;2023-02-25T10:04:46;2.35;;;1.37;;
13222;SDS011;6676;45.192;5.722;2023-02-25T10:07:45;1.75;;;1.20;;
13222;SDS011;6676;45.192;5.722;2023-02-25T10:10:42;2.17;;;1.77;;
13222;SDS011;6676;45.192;5.722;2023-02-25T10:13:40;2.12;;;1.47;;
13222;SDS011;6676;45.192;5.722;2023-02-25T10:16:49;2.37;;;1.40;;
13222;SDS011;6676;45.192;5.722;2023-02-25T10:20:32;2.20;;;1.62;;
13222;SDS011;6676;45.192;5.722;2023-02-25T10:23:28;3.50;;;1.77;;
13222;SDS011;6676;45.192;5.722;2023-02-25T10:26:25;2.65;;;1.80;;
13222;SDS011;6676;45.192;5.722;2023-02-25T10:29:22;3.77;;;1.52;;
13222;SDS011;6676;45.192;5.722;2023-02-25T10:32:17;5.70;;;1.85;;
13222;SDS011;6676;45.192;5.722;2023-02-25T10:35:22;2.05;;;1.67;;
13222;SDS011;6676;45.192;5.722;2023-02-25T10:38:16;3.62;;;1.55;;
13222;SDS011;6676;45.192;5.722;2023-02-25T10:41:14;3.33;;;1.35;;
13222;SDS011;6676;45.192;5.722;2023-02-25T10:44:09;3.72;;;1.65;;
13222;SDS011;6676;45.192;5.722;2023-02-25T10:47:03;2.33;;;1.40;;
13222;SDS011;6676;45.192;5.722;2023-02-25T10:50:15;2.02;;;1.75;;
13222;SDS011;6676;45.192;5.722;2023-02-25T10:53:13;5.65;;;1.85;;
13222;SDS011;6676;45.192;5.722;2023-02-25T10:56:11;2.65;;;1.20;;
13222;SDS011;6676;45.192;5.722;2023-02-25T10:59:04;3.92;;;1.82;;
13222;SDS011;6676;45.192;5.722;2023-02-25T11:01:57;4.87;;;1.98;;
13222;SDS011;6676;45.192;5.722;2023-02-25T11:08:24;2.20;;;1.70;;
13222;SDS011;6676;45.192;5.722;2023-02-25T11:11:52;3.05;;;2.10;;
13222;SDS011;6676;45.192;5.722;2023-02-25T11:14:45;4.08;;;2.15;;
13222;SDS011;6676;45.192;5.722;2023-02-25T11:17:36;3.10;;;1.92;;
13222;SDS011;6676;45.192;5.722;2023-02-25T11:20:31;2.58;;;2.02;;
13222;SDS011;6676;45.192;5.722;2023-02-25T11:23:27;3.58;;;1.80;;
13222;SDS011;6676;45.192;5.722;2023-02-25T11:26:25;3.70;;;2.02;;
13222;SDS011;6676;45.192;5.722;2023-02-25T11:29:22;3.27;;;1.77;;
13222;SDS011;6676;45.192;5.722;2023-02-25T11:32:16;2.50;;;1.67;;
13222;SDS011;6676;45.192;5.722;2023-02-25T11:35:15;3.35;;;2.00;;
13222;SDS011;6676;45.192;5.722;2023-02-25T11:38:22;2.30;;;2.08;;
13222;SDS011;6676;45.192;5.722;2023-02-25T11:41:16;2.98;;;2.08;;
13222;SDS011;6676;45.192;5.722;2023-02-25T11:44:15;1.95;;;1.57;;
13222;SDS011;6676;45.192;5.722;2023-02-25T11:47:29;3.08;;;2.00;;
13222;SDS011;6676;45.192;5.722;2023-02-25T11:50:24;3.72;;;2.40;;
13222;SDS011;6676;45.192;5.722;2023-02-25T11:53:23;3.30;;;2.20;;
13222;SDS011;6676;45.192;5.722;2023-02-25T11:56:23;2.67;;;2.33;;
13222;SDS011;6676;45.192;5.722;2023-02-25T11:59:29;3.17;;;1.98;;
13222;SDS011;6676;45.192;5.722;2023-02-25T12:02:33;3.58;;;2.05;;
13222;SDS011;6676;45.192;5.722;2023-02-25T12:05:35;2.22;;;1.90;;
13222;SDS011;6676;45.192;5.722;2023-02-25T12:08:43;4.22;;;2.90;;
13222;SDS011;6676;45.192;5.722;2023-02-25T12:15:18;5.25;;;2.30;;
13222;SDS011;6676;45.192;5.722;2023-02-25T12:22:05;2.25;;;1.95;;
13222;SDS011;6676;45.192;5.722;2023-02-25T12:25:20;3.10;;;2.40;;
13222;SDS011;6676;45.192;5.722;2023-02-25T12:28:38;3.20;;;2.00;;
13222;SDS011;6676;45.192;5.722;2023-02-25T12:31:56;3.45;;;1.90;;
13222;SDS011;6676;45.192;5.722;2023-02-25T12:41:42;2.77;;;2.00;;
13222;SDS011;6676;45.192;5.722;2023-02-25T12:44:59;4.08;;;2.62;;
13222;SDS011;6676;45.192;5.722;2023-02-25T12:48:27;2.80;;;2.10;;
13222;SDS011;6676;45.192;5.722;2023-02-25T12:51:50;2.52;;;1.77;;
13222;SDS011;6676;45.192;5.722;2023-02-25T12:55:14;3.05;;;1.82;;
13222;SDS011;6676;45.192;5.722;2023-02-25T12:58:21;3.45;;;2.10;;
13222;SDS011;6676;45.192;5.722;2023-02-25T13:05:27;3.02;;;1.82;;
13222;SDS011;6676;45.192;5.722;2023-02-25T13:08:38;2.72;;;2.17;;
13222;SDS011;6676;45.192;5.722;2023-02-25T13:12:07;3.83;;;1.32;;
13222;SDS011;6676;45.192;5.722;2023-02-25T13:15:06;2.80;;;2.05;;
13222;SDS011;6676;45.192;5.722;2023-02-25T13:18:10;2.67;;;1.77;;
13222;SDS011;6676;45.192;5.722;2023-02-25T13:21:20;5.08;;;2.30;;
13222;SDS011;6676;45.192;5.722;2023-02-25T13:24:20;4.65;;;2.20;;
13222;SDS011;6676;45.192;5.722;2023-02-25T13:27:23;2.22;;;1.82;;
13222;SDS011;6676;45.192;5.722;2023-02-25T13:30:34;3.00;;;2.20;;
13222;SDS011;6676;45.192;5.722;2023-02-25T13:33:40;4.50;;;2.10;;
13222;SDS011;6676;45.192;5.722;2023-02-25T13:37:05;3.40;;;1.90;;
13222;SDS011;6676;45.192;5.722;2023-02-25T13:40:10;5.87;;;2.52;;
13222;SDS011;6676;45.192;5.722;2023-02-25T13:43:17;2.25;;;1.87;;
13222;SDS011;6676;45.192;5.722;2023-02-25T13:46:22;2.50;;;1.77;;
13222;SDS011;6676;45.192;5.722;2023-02-25T13:49:44;3.90;;;2.40;;
13222;SDS011;6676;45.192;5.722;2023-02-25T13:52:58;4.95;;;2.10;;
13222;SDS011;6676;45.192;5.722;2023-02-25T13:59:29;4.25;;;2.52;;
13222;SDS011;6676;45.192;5.722;2023-02-25T14:02:34;3.25;;;2.17;;
13222;SDS011;6676;45.192;5.722;2023-02-25T14:05:39;4.95;;;2.83;;
13222;SDS011;6676;45.192;5.722;2023-02-25T14:08:55;4.83;;;3.17;;
13222;SDS011;6676;45.192;5.722;2023-02-25T14:11:56;4.87;;;2.80;;
13222;SDS011;6676;45.192;5.722;2023-02-25T14:18:16;3.20;;;2.35;;
13222;SDS011;6676;45.192;5.722;2023-02-25T14:21:28;4.30;;;2.77;;
13222;SDS011;6676;45.192;5.722;2023-02-25T14:24:30;4.47;;;2.30;;
13222;SDS011;6676;45.192;5.722;2023-02-25T14:27:26;3.50;;;2.22;;
13222;SDS011;6676;45.192;5.722;2023-02-25T14:30:22;4.10;;;2.40;;
13222;SDS011;6676;45.192;5.722;2023-02-25T14:33:28;3.92;;;2.37;;
13222;SDS011;6676;45.192;5.722;2023-02-25T14:36:45;3.45;;;2.80;;
13222;SDS011;6676;45.192;5.722;2023-02-25T14:39:46;2.65;;;1.98;;
13222;SDS011;6676;45.192;5.722;2023-02-25T14:43:06;3.22;;;2.37;;
13222;SDS011;6676;45.192;5.722;2023-02-25T14:46:10;3.70;;;2.52;;
13222;SDS011;6676;45.192;5.722;2023-02-25T14:49:14;4.95;;;2.40;;
13222;SDS011;6676;45.192;5.722;2023-02-25T14:52:23;5.67;;;2.75;;
13222;SDS011;6676;45.192;5.722;2023-02-25T14:58:44;3.22;;;2.35;;
13222;SDS011;6676;45.192;5.722;2023-02-25T15:08:49;3.80;;;2.58;;
13222;SDS011;6676;45.192;5.722;2023-02-25T15:12:07;3.47;;;2.12;;
13222;SDS011;6676;45.192;5.722;2023-02-25T15:21:38;4.05;;;2.50;;
13222;SDS011;6676;45.192;5.722;2023-02-25T15:24:37;4.83;;;2.58;;
13222;SDS011;6676;45.192;5.722;2023-02-25T15:27:31;3.77;;;2.00;;
13222;SDS011;6676;45.192;5.722;2023-02-25T15:48:47;4.50;;;3.08;;
13222;SDS011;6676;45.192;5.722;2023-02-25T15:51:53;5.60;;;3.63;;
13222;SDS011;6676;45.192;5.722;2023-02-25T15:54:47;6.67;;;3.77;;
13222;SDS011;6676;45.192;5.722;2023-02-25T15:57:43;4.87;;;3.40;;
13222;SDS011;6676;45.192;5.722;2023-02-25T16:07:32;5.90;;;2.98;;
13222;SDS011;6676;45.192;5.722;2023-02-25T16:10:26;5.53;;;3.55;;
13222;SDS011;6676;45.192;5.722;2023-02-25T16:13:21;5.67;;;3.20;;
13222;SDS011;6676;45.192;5.722;2023-02-25T16:16:23;5.58;;;3.45;;
13222;SDS011;6676;45.192;5.722;2023-02-25T16:19:16;4.40;;;3.62;;
13222;SDS011;6676;45.192;5.722;2023-02-25T16:22:12;5.03;;;3.67;;
13222;SDS011;6676;45.192;5.722;2023-02-25T16:25:11;8.80;;;4.00;;
13222;SDS011;6676;45.192;5.722;2023-02-25T16:28:06;5.47;;;3.87;;
13222;SDS011;6676;45.192;5.722;2023-02-25T16:31:02;6.70;;;4.47;;
13222;SDS011;6676;45.192;5.722;2023-02-25T16:33:56;7.75;;;4.92;;
13222;SDS011;6676;45.192;5.722;2023-02-25T16:36:42;7.10;;;4.15;;
13222;SDS011;6676;45.192;5.722;2023-02-25T16:39:40;5.80;;;4.65;;
13222;SDS011;6676;45.192;5.722;2023-02-25T16:42:37;8.75;;;5.72;;
13222;SDS011;6676;45.192;5.722;2023-02-25T16:45:31;8.48;;;3.87;;
13222;SDS011;6676;45.192;5.722;2023-02-25T16:48:32;5.35;;;3.52;;
13222;SDS011;6676;45.192;5.722;2023-02-25T16:51:38;7.50;;;4.67;;
13222;SDS011;6676;45.192;5.722;2023-02-25T16:54:33;9.30;;;5.35;;
13222;SDS011;6676;45.192;5.722;2023-02-25T16:57:26;7.47;;;5.35;;
13222;SDS011;6676;45.192;5.722;2023-02-25T17:00:19;6.70;;;4.85;;
13222;SDS011;6676;45.192;5.722;2023-02-25T17:03:14;6.00;;;4.40;;
13222;SDS011;6676;45.192;5.722;2023-02-25T17:06:07;7.20;;;4.92;;
13222;SDS011;6676;45.192;5.722;2023-02-25T17:09:24;6.15;;;4.42;;
13222;SDS011;6676;45.192;5.722;2023-02-25T17:12:18;6.62;;;4.35;;
13222;SDS011;6676;45.192;5.722;2023-02-25T17:15:13;6.35;;;4.40;;
13222;SDS011;6676;45.192;5.722;2023-02-25T17:18:07;4.62;;;3.25;;
13222;SDS011;6676;45.192;5.722;2023-02-25T17:21:03;8.88;;;4.65;;
13222;SDS011;6676;45.192;5.722;2023-02-25T17:23:58;7.47;;;3.25;;
13222;SDS011;6676;45.192;5.722;2023-02-25T17:27:00;5.70;;;3.62;;
13222;SDS011;6676;45.192;5.722;2023-02-25T17:29:52;6.20;;;4.03;;
13222;SDS011;6676;45.192;5.722;2023-02-25T17:32:44;6.05;;;3.70;;
13222;SDS011;6676;45.192;5.722;2023-02-25T17:35:39;4.50;;;3.25;;
13222;SDS011;6676;45.192;5.722;2023-02-25T17:38:31;4.92;;;3.50;;
13222;SDS011;6676;45.192;5.722;2023-02-25T17:41:25;3.95;;;2.95;;
13222;SDS011;6676;45.192;5.722;2023-02-25T17:47:34;4.95;;;3.25;;
13222;SDS011;6676;45.192;5.722;2023-02-25T17:50:29;6.33;;;3.15;;
13222;SDS011;6676;45.192;5.722;2023-02-25T17:53:31;4.97;;;3.05;;
13222;SDS011;6676;45.192;5.722;2023-02-25T17:56:30;6.40;;;3.02;;
13222;SDS011;6676;45.192;5.722;2023-02-25T17:59:31;6.22;;;3.27;;
13222;SDS011;6676;45.192;5.722;2023-02-25T18:02:28;5.95;;;3.70;;
13222;SDS011;6676;45.192;5.722;2023-02-25T18:08:16;5.65;;;3.10;;
13222;SDS011;6676;45.192;5.722;2023-02-25T18:11:19;4.80;;;3.00;;
13222;SDS011;6676;45.192;5.722;2023-02-25T18:14:21;5.10;;;2.75;;
13222;SDS011;6676;45.192;5.722;2023-02-25T18:17:17;4.60;;;3.20;;
13222;SDS011;6676;45.192;5.722;2023-02-25T18:20:26;6.95;;;3.83;;
13222;SDS011;6676;45.192;5.722;2023-02-25T18:23:18;4.95;;;3.00;;
13222;SDS011;6676;45.192;5.722;2023-02-25T18:26:13;6.12;;;2.70;;
13222;SDS011;6676;45.192;5.722;2023-02-25T18:29:07;7.60;;;4.00;;
13222;SDS011;6676;45.192;5.722;2023-02-25T18:32:00;4.97;;;3.52;;
13222;SDS011;6676;45.192;5.722;2023-02-25T18:34:52;3.08;;;2.30;;
13222;SDS011;6676;45.192;5.722;2023-02-25T18:37:44;4.12;;;2.05;;
13222;SDS011;6676;45.192;5.722;2023-02-25T18:40:39;4.85;;;2.83;;
13222;SDS011;6676;45.192;5.722;2023-02-25T18:43:30;6.25;;;3.27;;
13222;SDS011;6676;45.192;5.722;2023-02-25T18:46:24;6.00;;;3.98;;
13222;SDS011;6676;45.192;5.722;2023-02-25T18:49:18;7.20;;;3.08;;
13222;SDS011;6676;45.192;5.722;2023-02-25T18:52:16;4.22;;;3.10;;
13222;SDS011;6676;45.192;5.722;2023-02-25T18:55:12;5.87;;;2.92;;
13222;SDS011;6676;45.192;5.722;2023-02-25T18:58:08;4.75;;;2.67;;
13222;SDS011;6676;45.192;5.722;2023-02-25T19:01:03;4.28;;;2.87;;
13222;SDS011;6676;45.192;5.722;2023-02-25T19:03:55;4.83;;;2.50;;
13222;SDS011;6676;45.192;5.722;2023-02-25T19:06:47;3.22;;;1.82;;
13222;SDS011;6676;45.192;5.722;2023-02-25T19:09:39;4.35;;;2.00;;
13222;SDS011;6676;45.192;5.722;2023-02-25T19:12:31;3.20;;;2.25;;
13222;SDS011;6676;45.192;5.722;2023-02-25T19:15:28;5.78;;;2.67;;
13222;SDS011;6676;45.192;5.722;2023-02-25T19:18:20;4.67;;;2.92;;
13222;SDS011;6676;45.192;5.722;2023-02-25T19:21:15;2.40;;;1.82;;
13222;SDS011;6676;45.192;5.722;2023-02-25T19:24:10;4.85;;;2.75;;
13222;SDS011;6676;45.192;5.722;2023-02-25T19:27:04;5.12;;;2.67;;
13222;SDS011;6676;45.192;5.722;2023-02-25T19:29:58;3.80;;;1.75;;
13222;SDS011;6676;45.192;5.722;2023-02-25T19:32:51;5.22;;;2.85;;
13222;SDS011;6676;45.192;5.722;2023-02-25T19:35:49;3.27;;;1.80;;
13222;SDS011;6676;45.192;5.722;2023-02-25T19:38:43;4.92;;;2.80;;
13222;SDS011;6676;45.192;5.722;2023-02-25T19:41:38;2.77;;;2.12;;
13222;SDS011;6676;45.192;5.722;2023-02-25T19:44:30;5.25;;;2.72;;
13222;SDS011;6676;45.192;5.722;2023-02-25T19:47:28;3.80;;;2.40;;
13222;SDS011;6676;45.192;5.722;2023-02-25T19:50:20;6.22;;;2.87;;